createdAt,value
2023-04-26T00:01:24.132Z,6.00
2023-04-26T00:02:56.207Z,7.50
2023-04-26T00:04:47.493Z,5.90
2023-04-26T00:06:20.082Z,6.93
2023-04-26T00:07:51.684Z,6.05
2023-04-26T00:09:23.874Z,5.85
2023-04-26T00:10:55.588Z,6.18
2023-04-26T00:12:27.840Z,6.32
2023-04-26T00:13:59.644Z,5.35
2023-04-26T00:15:32.105Z,7.60
2023-04-26T00:17:04.433Z,6.93
2023-04-26T00:18:36.039Z,5.63
2023-04-26T00:20:10.498Z,6.40
2023-04-26T00:21:42.690Z,6.15
2023-04-26T00:23:14.344Z,6.50
2023-04-26T00:24:46.071Z,6.50
2023-04-26T00:26:17.739Z,5.88
2023-04-26T00:27:49.957Z,5.78
2023-04-26T00:29:22.383Z,7.32
2023-04-26T00:30:54.276Z,6.50
2023-04-26T00:32:26.251Z,6.65
2023-04-26T00:33:57.944Z,6.93
2023-04-26T00:35:29.688Z,6.65
2023-04-26T00:37:01.677Z,6.78
2023-04-26T00:38:33.352Z,6.95
2023-04-26T00:40:06.439Z,6.13
2023-04-26T00:41:38.165Z,6.38
2023-04-26T00:43:10.673Z,6.57
2023-04-26T00:44:42.955Z,6.45
2023-04-26T00:46:14.765Z,5.82
2023-04-26T00:47:46.706Z,6.13
2023-04-26T00:49:22.008Z,7.20
2023-04-26T00:50:53.872Z,6.53
2023-04-26T00:52:26.784Z,5.78
2023-04-26T00:53:59.579Z,6.35
2023-04-26T00:55:31.624Z,5.68
2023-04-26T00:57:03.812Z,5.95
2023-04-26T00:58:37.437Z,5.57
2023-04-26T01:00:10.285Z,6.32
2023-04-26T01:01:42.675Z,5.55
2023-04-26T01:03:14.735Z,6.32
2023-04-26T01:04:46.632Z,5.68
2023-04-26T01:06:18.300Z,6.25
2023-04-26T01:07:50.076Z,4.72
2023-04-26T01:09:22.383Z,5.65
2023-04-26T01:10:54.812Z,6.60
2023-04-26T01:12:26.746Z,6.28
2023-04-26T01:13:58.535Z,5.75
2023-04-26T01:15:33.574Z,5.60
2023-04-26T01:17:06.258Z,5.88
2023-04-26T01:18:37.905Z,6.95
2023-04-26T01:20:10.529Z,5.93
2023-04-26T01:21:43.005Z,6.72
2023-04-26T01:23:14.598Z,7.95
2023-04-26T01:24:51.176Z,7.20
2023-04-26T01:26:22.957Z,5.95
2023-04-26T01:27:54.643Z,6.22
2023-04-26T01:29:31.505Z,6.30
2023-04-26T01:31:03.439Z,5.88
2023-04-26T01:32:36.522Z,6.85
2023-04-26T01:34:08.194Z,6.25
2023-04-26T01:35:39.945Z,7.18
2023-04-26T01:37:11.670Z,7.15
2023-04-26T01:38:43.294Z,7.90
2023-04-26T01:40:14.971Z,6.25
2023-04-26T01:41:46.715Z,6.95
2023-04-26T01:43:23.029Z,7.65
2023-04-26T01:44:54.660Z,6.32
2023-04-26T01:46:27.519Z,6.53
2023-04-26T01:47:59.494Z,6.70
2023-04-26T01:49:31.466Z,6.80
2023-04-26T01:51:03.132Z,6.07
2023-04-26T01:52:34.803Z,6.53
2023-04-26T01:54:06.700Z,6.68
2023-04-26T01:55:38.414Z,5.82
2023-04-26T01:57:10.143Z,5.75
2023-04-26T01:58:41.916Z,6.80
2023-04-26T02:00:14.801Z,7.63
2023-04-26T02:01:47.017Z,6.53
2023-04-26T02:03:18.832Z,8.85
2023-04-26T02:04:50.880Z,6.75
2023-04-26T02:06:22.628Z,6.43
2023-04-26T02:07:56.612Z,6.95
2023-04-26T02:09:28.245Z,6.55
2023-04-26T02:10:59.929Z,6.40
2023-04-26T02:12:32.127Z,6.25
2023-04-26T02:14:03.705Z,8.07
2023-04-26T02:15:35.443Z,6.47
2023-04-26T02:17:07.091Z,7.00
2023-04-26T02:18:41.639Z,7.00
2023-04-26T02:20:13.319Z,6.40
2023-04-26T02:21:55.825Z,7.43
2023-04-26T02:23:27.684Z,6.90
2023-04-26T02:24:59.346Z,6.63
2023-04-26T02:26:32.762Z,7.65
2023-04-26T02:28:06.133Z,6.03
2023-04-26T02:29:44.446Z,8.38
2023-04-26T02:31:16.666Z,7.15
2023-04-26T02:32:48.424Z,6.30
2023-04-26T02:34:19.965Z,9.15
2023-04-26T02:35:51.685Z,6.63
2023-04-26T02:37:24.017Z,7.10
2023-04-26T02:38:55.764Z,6.85
2023-04-26T02:40:27.634Z,6.82
2023-04-26T02:42:00.448Z,5.82
2023-04-26T02:43:32.121Z,6.82
2023-04-26T02:45:04.118Z,7.57
2023-04-26T02:46:36.423Z,7.55
2023-04-26T02:48:08.178Z,8.20
2023-04-26T02:49:40.000Z,6.88
2023-04-26T02:51:11.636Z,7.10
2023-04-26T02:52:43.284Z,6.80
2023-04-26T02:54:14.934Z,6.90
2023-04-26T02:55:46.659Z,7.80
2023-04-26T02:57:18.294Z,7.28
2023-04-26T02:58:50.290Z,7.28
2023-04-26T03:00:23.643Z,6.38
2023-04-26T03:01:55.541Z,6.53
2023-04-26T03:03:27.368Z,6.60
2023-04-26T03:04:59.272Z,7.03
2023-04-26T03:06:31.310Z,6.15
2023-04-26T03:08:04.374Z,7.28
2023-04-26T03:09:38.770Z,6.40
2023-04-26T03:11:10.737Z,7.55
2023-04-26T03:12:42.661Z,6.10
2023-04-26T03:14:14.288Z,6.80
2023-04-26T03:15:46.697Z,8.63
2023-04-26T03:17:18.294Z,6.53
2023-04-26T03:18:50.857Z,6.55
2023-04-26T03:20:22.790Z,6.38
2023-04-26T03:21:55.718Z,6.72
2023-04-26T03:23:28.806Z,6.13
2023-04-26T03:25:00.486Z,6.20
2023-04-26T03:26:33.650Z,8.75
2023-04-26T03:28:05.465Z,6.18
2023-04-26T03:29:37.450Z,7.97
2023-04-26T03:31:09.323Z,7.00
2023-04-26T03:32:41.017Z,6.93
2023-04-26T03:34:12.752Z,7.32
2023-04-26T03:35:44.472Z,8.02
2023-04-26T03:37:16.331Z,7.63
2023-04-26T03:38:51.765Z,7.55
2023-04-26T03:40:24.316Z,7.15
2023-04-26T03:41:55.968Z,6.82
2023-04-26T03:43:27.747Z,8.05
2023-04-26T03:44:59.342Z,8.20
2023-04-26T03:46:31.018Z,7.13
2023-04-26T03:48:02.819Z,7.90
2023-04-26T03:49:34.456Z,8.50
2023-04-26T03:51:06.827Z,8.52
2023-04-26T03:52:38.517Z,8.48
2023-04-26T03:54:11.146Z,8.18
2023-04-26T03:55:42.773Z,8.55
2023-04-26T03:57:14.540Z,8.65
2023-04-26T03:58:46.557Z,8.25
2023-04-26T04:00:18.281Z,8.00
2023-04-26T04:01:51.642Z,8.85
2023-04-26T04:03:23.572Z,8.40
2023-04-26T04:04:57.349Z,8.10
2023-04-26T04:06:31.089Z,13.27
2023-04-26T04:08:03.004Z,13.70
2023-04-26T04:09:35.097Z,8.57
2023-04-26T04:11:06.844Z,9.07
2023-04-26T04:12:41.463Z,8.95
2023-04-26T04:14:13.313Z,8.60
2023-04-26T04:15:45.118Z,9.45
2023-04-26T04:17:17.277Z,9.20
2023-04-26T04:18:49.024Z,8.32
2023-04-26T04:20:21.435Z,8.30
2023-04-26T04:21:53.242Z,8.55
2023-04-26T04:23:24.935Z,9.30
2023-04-26T04:24:57.954Z,8.50
2023-04-26T04:26:29.731Z,8.70
2023-04-26T04:28:02.865Z,8.88
2023-04-26T04:29:35.064Z,9.10
2023-04-26T04:31:09.398Z,9.60
2023-04-26T04:32:44.909Z,9.30
2023-04-26T04:35:49.880Z,8.95
2023-04-26T04:37:22.848Z,10.32
2023-04-26T04:38:54.956Z,9.40
2023-04-26T04:40:27.810Z,11.23
2023-04-26T04:42:00.460Z,7.93
2023-04-26T04:43:32.616Z,7.72
2023-04-26T04:45:05.099Z,8.48
2023-04-26T04:46:38.459Z,7.90
2023-04-26T04:48:11.470Z,8.77
2023-04-26T04:49:43.820Z,8.02
2023-04-26T04:51:15.740Z,9.32
2023-04-26T04:52:47.638Z,9.25
2023-04-26T04:54:19.828Z,9.73
2023-04-26T04:55:52.697Z,7.55
2023-04-26T04:57:24.625Z,7.13
2023-04-26T04:58:56.705Z,7.85
2023-04-26T05:00:28.884Z,6.43
2023-04-26T05:02:07.677Z,7.07
2023-04-26T05:03:39.641Z,7.55
2023-04-26T05:05:11.750Z,7.57
2023-04-26T05:06:43.953Z,8.40
2023-04-26T05:08:16.813Z,7.43
2023-04-26T05:09:48.648Z,8.18
2023-04-26T05:11:20.885Z,8.48
2023-04-26T05:12:52.550Z,7.35
2023-04-26T05:14:24.239Z,7.45
2023-04-26T05:15:56.240Z,8.68
2023-04-26T05:17:27.962Z,8.15
2023-04-26T05:18:59.887Z,8.85
2023-04-26T05:20:31.871Z,8.57
2023-04-26T05:22:04.846Z,8.98
2023-04-26T05:23:37.238Z,8.43
2023-04-26T05:25:10.588Z,7.80
2023-04-26T05:26:42.814Z,7.80
2023-04-26T05:28:14.823Z,8.63
2023-04-26T05:30:06.490Z,10.02
2023-04-26T05:32:01.336Z,10.05
2023-04-26T05:33:44.929Z,8.38
2023-04-26T05:35:22.104Z,8.90
2023-04-26T05:36:54.625Z,8.93
2023-04-26T05:38:26.431Z,8.90
2023-04-26T05:39:58.336Z,9.18
2023-04-26T05:41:31.053Z,8.13
2023-04-26T05:43:03.182Z,8.80
2023-04-26T05:44:36.102Z,10.27
2023-04-26T05:46:08.100Z,9.35
2023-04-26T05:47:39.832Z,8.30
2023-04-26T05:49:13.114Z,9.45
2023-04-26T05:50:44.727Z,11.07
2023-04-26T05:52:16.350Z,9.65
2023-04-26T05:53:48.082Z,9.95
2023-04-26T05:55:21.535Z,9.88
2023-04-26T05:56:54.244Z,10.25
2023-04-26T05:58:26.107Z,9.30
2023-04-26T05:59:57.806Z,9.88
2023-04-26T06:01:30.117Z,9.82
2023-04-26T06:03:02.196Z,8.50
2023-04-26T06:04:34.339Z,9.77
2023-04-26T06:06:11.287Z,9.48
2023-04-26T06:07:46.112Z,8.82
2023-04-26T06:09:19.657Z,9.57
2023-04-26T06:10:52.352Z,10.02
2023-04-26T06:12:24.363Z,10.95
2023-04-26T06:13:57.175Z,11.02
2023-04-26T06:15:31.777Z,9.10
2023-04-26T06:17:04.194Z,9.57
2023-04-26T06:18:36.320Z,10.38
2023-04-26T06:20:11.775Z,9.02
2023-04-26T06:21:43.426Z,11.25
2023-04-26T06:23:15.069Z,12.80
2023-04-26T06:24:46.756Z,11.82
2023-04-26T06:26:19.250Z,9.88
2023-04-26T06:27:50.856Z,10.13
2023-04-26T06:29:22.653Z,10.18
2023-04-26T06:30:54.418Z,12.38
2023-04-26T06:32:27.084Z,11.10
2023-04-26T06:33:59.240Z,10.35
2023-04-26T06:35:31.400Z,10.40
2023-04-26T06:37:04.448Z,10.23
2023-04-26T06:38:36.798Z,10.80
2023-04-26T06:40:08.966Z,10.30
2023-04-26T06:41:40.622Z,11.00
2023-04-26T06:43:15.145Z,11.27
2023-04-26T06:45:01.771Z,9.55
2023-04-26T06:46:33.551Z,10.43
2023-04-26T06:48:05.564Z,10.43
2023-04-26T06:49:38.378Z,10.80
2023-04-26T06:51:10.073Z,9.30
2023-04-26T06:52:41.751Z,11.70
2023-04-26T06:54:13.718Z,10.27
2023-04-26T06:55:45.982Z,10.20
2023-04-26T06:57:17.557Z,9.68
2023-04-26T06:59:00.832Z,8.90
2023-04-26T07:00:32.457Z,8.23
2023-04-26T07:02:04.192Z,11.88
2023-04-26T07:03:36.101Z,9.82
2023-04-26T07:05:08.942Z,10.20
2023-04-26T07:06:41.204Z,9.02
2023-04-26T07:08:13.049Z,9.95
2023-04-26T07:09:44.709Z,9.07
2023-04-26T07:11:16.390Z,9.10
2023-04-26T07:12:48.028Z,8.35
2023-04-26T07:14:19.678Z,8.65
2023-04-26T07:15:51.486Z,9.52
2023-04-26T07:17:23.160Z,8.68
2023-04-26T07:18:58.169Z,9.23
2023-04-26T07:20:29.810Z,8.63
2023-04-26T07:22:01.741Z,8.98
2023-04-26T07:23:33.481Z,7.93
2023-04-26T07:25:05.625Z,7.75
2023-04-26T07:26:37.372Z,8.88
2023-04-26T07:28:09.106Z,7.25
2023-04-26T07:29:40.695Z,8.18
2023-04-26T07:31:12.690Z,7.53
2023-04-26T07:32:44.532Z,7.43
2023-04-26T07:34:16.313Z,8.25
2023-04-26T07:35:56.333Z,7.22
2023-04-26T07:37:27.969Z,6.40
2023-04-26T07:38:59.688Z,6.75
2023-04-26T07:40:31.689Z,6.93
2023-04-26T07:42:03.586Z,6.00
2023-04-26T07:43:35.399Z,6.63
2023-04-26T07:45:08.526Z,7.45
2023-04-26T07:46:40.142Z,7.80
2023-04-26T07:48:12.067Z,7.97
2023-04-26T07:49:44.809Z,6.38
2023-04-26T07:51:17.355Z,6.60
2023-04-26T07:52:49.040Z,6.20
2023-04-26T07:54:20.913Z,5.35
2023-04-26T07:55:52.665Z,5.82
2023-04-26T07:57:24.585Z,6.22
2023-04-26T07:58:56.282Z,5.35
2023-04-26T08:00:27.998Z,5.82
2023-04-26T08:01:59.689Z,5.18
2023-04-26T08:03:31.740Z,4.50
2023-04-26T08:05:04.516Z,5.25
2023-04-26T08:06:39.400Z,4.45
2023-04-26T08:08:12.602Z,4.60
2023-04-26T08:09:44.602Z,4.57
2023-04-26T08:11:16.873Z,5.75
2023-04-26T08:12:48.517Z,4.28
2023-04-26T08:14:20.211Z,3.97
2023-04-26T08:15:52.762Z,4.05
2023-04-26T08:17:24.365Z,3.88
2023-04-26T08:19:02.576Z,3.83
2023-04-26T08:20:34.411Z,3.60
2023-04-26T08:22:06.341Z,2.97
2023-04-26T08:23:38.112Z,3.80
2023-04-26T08:25:10.764Z,3.40
2023-04-26T08:26:42.380Z,3.42
2023-04-26T08:28:14.570Z,2.95
2023-04-26T08:29:46.523Z,3.58
2023-04-26T08:31:18.370Z,4.38
2023-04-26T08:32:50.139Z,3.95
2023-04-26T08:34:22.228Z,4.00
2023-04-26T08:35:53.937Z,4.93
2023-04-26T08:37:26.510Z,4.18
2023-04-26T08:38:59.812Z,4.70
2023-04-26T08:40:32.940Z,4.93
2023-04-26T08:42:08.409Z,5.47
2023-04-26T08:43:40.246Z,4.18
2023-04-26T08:45:11.896Z,4.70
2023-04-26T08:47:09.888Z,4.10
2023-04-26T08:48:41.544Z,4.38
2023-04-26T08:50:15.863Z,3.97
2023-04-26T08:51:47.917Z,5.40
2023-04-26T08:53:20.284Z,4.43
2023-04-26T08:54:52.866Z,4.22
2023-04-26T08:56:25.766Z,5.82
2023-04-26T08:57:58.155Z,4.78
2023-04-26T08:59:48.666Z,5.03
2023-04-26T09:01:21.738Z,4.40
2023-04-26T09:02:53.993Z,4.47
2023-04-26T09:04:26.035Z,5.05
2023-04-26T09:05:58.534Z,4.82
2023-04-26T09:07:41.580Z,5.45
2023-04-26T09:09:18.360Z,4.40
2023-04-26T09:10:49.995Z,5.03
2023-04-26T09:12:21.634Z,4.65
2023-04-26T09:13:53.534Z,5.43
2023-04-26T09:15:27.617Z,6.03
2023-04-26T09:16:59.612Z,4.95
2023-04-26T09:18:33.585Z,3.58
2023-04-26T09:20:31.359Z,5.57
2023-04-26T09:22:03.376Z,5.07
2023-04-26T09:23:35.533Z,4.57
2023-04-26T09:25:08.313Z,5.68
2023-04-26T09:26:40.853Z,4.63
2023-04-26T09:28:21.653Z,4.63
2023-04-26T09:30:26.604Z,4.38
2023-04-26T09:31:58.554Z,4.57
2023-04-26T09:33:30.193Z,4.45
2023-04-26T09:35:01.739Z,4.85
2023-04-26T09:36:33.449Z,3.55
2023-04-26T09:38:10.937Z,4.57
2023-04-26T09:39:43.719Z,4.15
2023-04-26T09:41:15.572Z,4.80
2023-04-26T09:42:47.575Z,4.38
2023-04-26T09:44:24.577Z,5.88
2023-04-26T09:45:58.134Z,4.15
2023-04-26T09:47:30.076Z,4.35
2023-04-26T09:49:02.989Z,4.82
2023-04-26T09:50:34.602Z,5.05
2023-04-26T09:52:06.869Z,4.40
2023-04-26T09:53:42.371Z,4.82
2023-04-26T09:55:34.608Z,4.95
2023-04-26T09:57:06.817Z,3.90
2023-04-26T09:58:59.013Z,5.00
2023-04-26T10:00:31.480Z,4.70
2023-04-26T10:02:03.862Z,6.20
2023-04-26T10:03:37.248Z,5.10
2023-04-26T10:05:09.859Z,4.30
2023-04-26T10:06:41.709Z,3.80
2023-04-26T10:08:13.446Z,5.75
2023-04-26T10:09:46.952Z,4.55
2023-04-26T10:11:18.897Z,5.38
2023-04-26T10:12:50.481Z,4.72
2023-04-26T10:14:22.466Z,4.00
2023-04-26T10:15:54.391Z,4.57
2023-04-26T10:17:26.281Z,5.72
2023-04-26T10:18:59.026Z,4.80
2023-04-26T10:20:31.498Z,4.38
2023-04-26T10:22:10.607Z,3.90
2023-04-26T10:23:42.694Z,3.85
2023-04-26T10:25:14.384Z,3.80
2023-04-26T10:26:57.490Z,3.60
2023-04-26T10:28:41.489Z,4.05
2023-04-26T10:30:15.617Z,3.88
2023-04-26T10:32:02.985Z,4.22
2023-04-26T10:33:34.817Z,3.22
2023-04-26T10:35:13.586Z,3.83
2023-04-26T10:37:11.475Z,3.90
2023-04-26T10:39:18.681Z,4.15
2023-04-26T10:40:50.917Z,4.90
2023-04-26T10:42:28.217Z,3.72
2023-04-26T10:44:22.159Z,4.07
2023-04-26T10:45:56.752Z,3.53
2023-04-26T10:47:33.901Z,4.20
2023-04-26T10:49:18.879Z,3.85
2023-04-26T10:51:04.812Z,4.40
2023-04-26T10:53:03.470Z,4.53
2023-04-26T10:55:06.367Z,3.97
2023-04-26T10:56:38.067Z,3.05
2023-04-26T10:58:32.783Z,2.88
2023-04-26T11:00:10.453Z,3.05
2023-04-26T11:01:42.342Z,3.33
2023-04-26T11:03:15.244Z,3.80
2023-04-26T11:04:53.469Z,3.10
2023-04-26T11:06:26.830Z,2.90
2023-04-26T11:08:17.428Z,2.92
2023-04-26T11:09:49.343Z,3.22
2023-04-26T11:11:26.926Z,2.75
2023-04-26T11:13:03.387Z,2.65
2023-04-26T11:14:35.629Z,3.03
2023-04-26T11:16:09.695Z,2.75
2023-04-26T11:17:41.375Z,2.50
2023-04-26T11:19:13.000Z,3.22
2023-04-26T11:20:44.840Z,2.50
2023-04-26T11:22:16.691Z,2.97
2023-04-26T11:23:55.100Z,2.63
2023-04-26T11:25:28.361Z,2.67
2023-04-26T11:26:59.883Z,2.88
2023-04-26T11:28:34.223Z,2.90
2023-04-26T11:30:07.083Z,2.90
2023-04-26T11:31:38.703Z,2.97
2023-04-26T11:33:22.373Z,3.08
2023-04-26T11:34:53.992Z,3.30
2023-04-26T11:36:25.648Z,2.65
2023-04-26T11:38:01.006Z,2.80
2023-04-26T11:39:33.912Z,2.80
2023-04-26T11:41:05.632Z,2.88
2023-04-26T11:42:37.447Z,3.67
2023-04-26T11:44:11.593Z,3.33
2023-04-26T11:45:43.206Z,3.13
2023-04-26T11:47:14.890Z,3.45
2023-04-26T11:48:47.038Z,2.60
2023-04-26T11:50:21.470Z,3.88
2023-04-26T11:51:54.797Z,2.85
2023-04-26T11:53:38.999Z,3.45
2023-04-26T11:55:11.799Z,2.90
2023-04-26T11:56:44.045Z,2.75
2023-04-26T11:58:16.698Z,2.55
2023-04-26T11:59:49.758Z,2.70
2023-04-26T12:01:30.231Z,3.22
2023-04-26T12:03:11.898Z,3.08
2023-04-26T12:04:45.223Z,2.92
2023-04-26T12:06:19.033Z,2.70
2023-04-26T12:07:57.510Z,2.50
2023-04-26T12:09:32.017Z,2.67
2023-04-26T12:11:06.027Z,2.78
2023-04-26T12:12:44.293Z,2.50
2023-04-26T12:14:17.806Z,2.63
2023-04-26T12:15:51.453Z,3.42
2023-04-26T12:17:23.328Z,2.72
2023-04-26T12:19:00.113Z,3.13
2023-04-26T12:20:40.016Z,2.67
2023-04-26T12:22:12.076Z,2.97
2023-04-26T12:23:47.917Z,3.03
2023-04-26T12:25:20.660Z,2.70
2023-04-26T12:26:53.911Z,3.30
2023-04-26T12:28:27.067Z,2.83
2023-04-26T12:30:01.010Z,2.63
2023-04-26T12:31:33.383Z,2.80
2023-04-26T12:33:16.538Z,2.67
2023-04-26T12:34:50.744Z,3.72
2023-04-26T12:36:23.987Z,3.28
2023-04-26T12:37:57.759Z,2.90
2023-04-26T12:39:30.740Z,3.13
2023-04-26T12:41:04.321Z,3.05
2023-04-26T12:42:37.866Z,2.65
2023-04-26T12:44:11.551Z,2.65
2023-04-26T12:45:44.731Z,3.92
2023-04-26T12:47:17.699Z,4.03
2023-04-26T12:48:51.264Z,3.35
2023-04-26T12:50:24.465Z,2.83
2023-04-26T12:51:57.542Z,3.15
2023-04-26T12:53:30.585Z,3.03
2023-04-26T12:55:06.269Z,2.70
2023-04-26T12:56:44.002Z,3.05
2023-04-26T12:58:17.134Z,2.70
2023-04-26T12:59:50.459Z,3.42
2023-04-26T13:01:23.513Z,2.78
2023-04-26T13:02:57.505Z,2.65
2023-04-26T13:04:30.436Z,2.60
2023-04-26T13:06:04.215Z,2.58
2023-04-26T13:07:39.961Z,3.17
2023-04-26T13:09:14.404Z,2.72
2023-04-26T13:10:46.627Z,2.85
2023-04-26T13:12:19.727Z,2.70
2023-04-26T13:13:52.518Z,2.92
2023-04-26T13:15:27.354Z,3.05
2023-04-26T13:17:00.842Z,2.85
2023-04-26T13:18:34.301Z,2.45
2023-04-26T13:20:07.678Z,2.85
2023-04-26T13:21:42.801Z,2.35
2023-04-26T13:23:15.766Z,2.80
2023-04-26T13:24:48.718Z,2.92
2023-04-26T13:26:21.539Z,3.10
2023-04-26T13:27:56.277Z,2.97
2023-04-26T13:29:29.344Z,2.90
2023-04-26T13:31:02.405Z,2.50
2023-04-26T13:32:35.856Z,4.32
2023-04-26T13:34:08.946Z,2.70
2023-04-26T13:35:41.202Z,3.58
2023-04-26T13:37:12.923Z,2.33
2023-04-26T13:38:44.904Z,3.08
2023-04-26T13:40:17.100Z,3.00
2023-04-26T13:41:48.718Z,3.05
2023-04-26T13:43:20.426Z,3.08
2023-04-26T13:44:52.085Z,2.65
2023-04-26T13:46:23.856Z,2.92
2023-04-26T13:47:55.897Z,3.13
2023-04-26T13:49:27.603Z,3.95
2023-04-26T13:50:59.381Z,2.95
2023-04-26T13:52:31.638Z,2.50
2023-04-26T13:54:05.879Z,2.97
2023-04-26T13:55:37.825Z,2.83
2023-04-26T13:57:09.731Z,2.78
2023-04-26T13:58:43.311Z,3.08
2023-04-26T14:00:16.491Z,2.92
2023-04-26T14:01:49.337Z,2.85
2023-04-26T14:03:22.510Z,2.80
2023-04-26T14:04:54.582Z,2.88
2023-04-26T14:06:27.098Z,2.75
2023-04-26T14:07:58.930Z,3.47
2023-04-26T14:09:32.236Z,3.00
2023-04-26T14:11:05.627Z,3.45
2023-04-26T14:12:38.391Z,2.67
2023-04-26T14:14:11.554Z,3.08
2023-04-26T14:15:44.543Z,3.05
2023-04-26T14:17:18.209Z,3.75
2023-04-26T14:18:51.761Z,2.38
2023-04-26T14:20:24.520Z,2.58
2023-04-26T14:21:58.070Z,3.67
2023-04-26T14:23:31.339Z,2.92
2023-04-26T14:25:04.550Z,2.90
2023-04-26T14:26:36.351Z,4.10
2023-04-26T14:28:08.437Z,2.40
2023-04-26T14:29:40.596Z,3.30
2023-04-26T14:31:12.824Z,3.20
2023-04-26T14:32:45.967Z,2.70
2023-04-26T14:34:19.095Z,2.65
2023-04-26T14:35:51.462Z,2.53
2023-04-26T14:37:24.434Z,3.10
2023-04-26T14:38:56.324Z,3.85
2023-04-26T14:40:28.180Z,2.78
2023-04-26T14:42:00.366Z,2.97
2023-04-26T14:43:33.708Z,2.50
2023-04-26T14:45:06.218Z,3.30
2023-04-26T14:46:37.832Z,3.13
2023-04-26T14:48:09.778Z,2.85
2023-04-26T14:49:41.416Z,3.33
2023-04-26T14:51:13.166Z,3.40
2023-04-26T14:52:44.773Z,3.05
2023-04-26T14:54:17.159Z,2.90
2023-04-26T14:55:58.036Z,3.40
2023-04-26T14:57:30.057Z,3.25
2023-04-26T14:59:02.620Z,2.50
2023-04-26T15:00:34.778Z,2.63
2023-04-26T15:02:07.368Z,3.40
2023-04-26T15:03:39.435Z,3.38
2023-04-26T15:05:12.864Z,2.72
2023-04-26T15:06:45.201Z,2.80
2023-04-26T15:08:18.017Z,2.55
2023-04-26T15:09:50.227Z,2.97
2023-04-26T15:11:22.008Z,2.58
2023-04-26T15:12:54.003Z,3.72
2023-04-26T15:14:25.700Z,2.38
2023-04-26T15:15:57.442Z,2.70
2023-04-26T15:17:32.573Z,2.97
2023-04-26T15:19:04.372Z,3.10
2023-04-26T15:20:40.599Z,2.55
2023-04-26T15:22:13.314Z,2.28
2023-04-26T15:23:45.157Z,2.53
2023-04-26T15:25:17.228Z,2.97
2023-04-26T15:26:48.924Z,3.17
2023-04-26T15:28:20.634Z,3.15
2023-04-26T15:29:53.362Z,4.07
2023-04-26T15:31:25.028Z,3.42
2023-04-26T15:32:57.125Z,2.88
2023-04-26T15:34:30.162Z,3.22
2023-04-26T15:36:01.760Z,3.08
2023-04-26T15:37:37.078Z,2.97
2023-04-26T15:39:08.749Z,2.53
2023-04-26T15:40:40.615Z,2.85
2023-04-26T15:42:12.367Z,3.47
2023-04-26T15:43:43.974Z,3.35
2023-04-26T15:45:15.778Z,2.83
2023-04-26T15:46:47.541Z,3.13
2023-04-26T15:48:19.305Z,3.67
2023-04-26T15:49:51.144Z,3.53
2023-04-26T15:51:22.810Z,3.97
2023-04-26T15:52:54.520Z,2.85
2023-04-26T15:54:26.764Z,4.47
2023-04-26T15:55:58.416Z,3.17
2023-04-26T15:57:30.548Z,3.33
2023-04-26T15:59:02.398Z,3.83
2023-04-26T16:00:34.359Z,2.88
2023-04-26T16:02:07.294Z,2.85
2023-04-26T16:03:39.769Z,3.33
2023-04-26T16:05:13.422Z,2.60
2023-04-26T16:06:45.849Z,3.15
2023-04-26T16:08:27.747Z,3.53
2023-04-26T16:10:11.169Z,2.72
2023-04-26T16:11:44.311Z,3.58
2023-04-26T16:13:16.222Z,3.42
2023-04-26T16:14:48.980Z,4.28
2023-04-26T16:16:20.693Z,3.33
2023-04-26T16:17:52.550Z,4.18
2023-04-26T16:19:26.797Z,4.40
2023-04-26T16:21:06.575Z,3.47
2023-04-26T16:22:38.861Z,3.97
2023-04-26T16:24:11.884Z,3.78
2023-04-26T16:25:45.087Z,3.38
2023-04-26T16:27:17.174Z,3.30
2023-04-26T16:28:49.472Z,3.30
2023-04-26T16:30:21.306Z,3.25
2023-04-26T16:31:54.366Z,2.65
2023-04-26T16:33:26.827Z,2.63
2023-04-26T16:34:58.662Z,2.65
2023-04-26T16:36:31.647Z,3.08
2023-04-26T16:38:03.531Z,2.60
2023-04-26T16:39:36.089Z,2.63
2023-04-26T16:41:08.784Z,2.72
2023-04-26T16:42:44.520Z,2.60
2023-04-26T16:44:16.795Z,2.63
2023-04-26T16:46:00.462Z,2.45
2023-04-26T16:47:32.143Z,2.53
2023-04-26T16:49:09.423Z,2.88
2023-04-26T16:50:43.192Z,4.15
2023-04-26T16:52:15.026Z,3.30
2023-04-26T16:53:46.674Z,2.53
2023-04-26T16:55:18.893Z,3.63
2023-04-26T16:56:50.984Z,2.97
2023-04-26T16:58:23.024Z,2.42
2023-04-26T16:59:55.065Z,2.55
2023-04-26T17:01:26.952Z,2.63
2023-04-26T17:02:59.779Z,2.72
2023-04-26T17:06:07.747Z,2.88
2023-04-26T17:07:39.378Z,2.60
2023-04-26T17:09:12.739Z,2.83
2023-04-26T17:10:46.160Z,3.03
2023-04-26T17:12:18.010Z,2.83
2023-04-26T17:13:49.922Z,2.45
2023-04-26T17:15:22.124Z,2.85
2023-04-26T17:16:53.655Z,2.97
2023-04-26T17:18:25.555Z,2.28
2023-04-26T17:19:57.777Z,2.33
2023-04-26T17:21:29.578Z,2.20
2023-04-26T17:23:04.138Z,2.60
2023-04-26T17:24:37.377Z,2.67
2023-04-26T17:26:09.849Z,2.72
2023-04-26T17:27:42.045Z,2.58
2023-04-26T17:29:14.051Z,2.70
2023-04-26T17:30:45.715Z,2.67
2023-04-26T17:32:17.334Z,2.92
2023-04-26T17:33:48.995Z,2.42
2023-04-26T17:35:20.833Z,2.85
2023-04-26T17:36:53.731Z,3.28
2023-04-26T17:38:25.477Z,3.25
2023-04-26T17:39:57.192Z,3.80
2023-04-26T17:41:28.916Z,3.53
2023-04-26T17:43:00.655Z,3.38
2023-04-26T17:44:32.524Z,4.15
2023-04-26T17:46:04.701Z,5.03
2023-04-26T17:47:36.547Z,4.63
2023-04-26T17:49:08.275Z,5.28
2023-04-26T17:50:40.111Z,4.20
2023-04-26T17:52:11.971Z,4.97
2023-04-26T17:53:43.689Z,3.95
2023-04-26T17:55:16.272Z,3.55
2023-04-26T17:56:47.903Z,3.22
2023-04-26T17:58:19.632Z,4.50
2023-04-26T17:59:52.141Z,3.85
2023-04-26T18:01:24.013Z,4.15
2023-04-26T18:02:57.988Z,4.30
2023-04-26T18:04:30.174Z,3.97
2023-04-26T18:06:02.142Z,5.07
2023-04-26T18:07:33.880Z,4.32
2023-04-26T18:09:05.442Z,7.57
2023-04-26T18:12:20.447Z,6.72
2023-04-26T18:13:52.290Z,6.32
2023-04-26T18:15:24.233Z,6.93
2023-04-26T18:16:56.278Z,6.30
2023-04-26T18:18:28.164Z,4.82
2023-04-26T18:20:00.001Z,5.68
2023-04-26T18:21:31.663Z,4.75
2023-04-26T18:23:03.957Z,4.50
2023-04-26T18:24:35.943Z,4.13
2023-04-26T18:26:08.074Z,5.28
2023-04-26T18:27:40.405Z,4.22
2023-04-26T18:29:12.281Z,5.20
2023-04-26T18:30:43.978Z,4.32
2023-04-26T18:32:17.485Z,3.83
2023-04-26T18:33:50.367Z,5.18
2023-04-26T18:35:23.539Z,3.85
2023-04-26T18:36:55.895Z,3.65
2023-04-26T18:38:29.321Z,3.45
2023-04-26T18:40:01.640Z,4.25
2023-04-26T18:41:33.890Z,4.35
2023-04-26T18:43:06.439Z,4.78
2023-04-26T18:44:38.572Z,3.35
2023-04-26T18:46:10.328Z,4.22
2023-04-26T18:47:42.095Z,3.92
2023-04-26T18:49:14.070Z,4.78
2023-04-26T18:50:51.351Z,4.20
2023-04-26T18:52:23.136Z,4.55
2023-04-26T18:53:54.868Z,4.30
2023-04-26T18:55:27.042Z,3.88
2023-04-26T18:57:00.289Z,4.30
2023-04-26T18:58:33.426Z,3.85
2023-04-26T19:00:07.921Z,3.20
2023-04-26T19:01:39.879Z,3.95
2023-04-26T19:03:11.648Z,4.40
2023-04-26T19:04:43.846Z,4.97
2023-04-26T19:06:16.831Z,3.35
2023-04-26T19:07:52.765Z,3.65
2023-04-26T19:10:56.755Z,3.90
2023-04-26T19:12:28.560Z,3.65
2023-04-26T19:14:00.162Z,3.70
2023-04-26T19:15:32.067Z,4.10
2023-04-26T19:17:04.184Z,3.55
2023-04-26T19:18:37.249Z,3.95
2023-04-26T19:20:13.158Z,3.10
2023-04-26T19:21:45.873Z,4.97
2023-04-26T19:23:18.237Z,3.35
2023-04-26T19:24:51.116Z,3.53
2023-04-26T19:26:23.856Z,3.42
2023-04-26T19:27:56.827Z,3.65
2023-04-26T19:29:29.947Z,3.72
2023-04-26T19:31:03.660Z,3.10
2023-04-26T19:32:37.471Z,3.58
2023-04-26T19:34:12.577Z,3.13
2023-04-26T19:35:45.926Z,3.58
2023-04-26T19:37:19.039Z,3.40
2023-04-26T19:38:52.254Z,3.50
2023-04-26T19:40:24.962Z,3.50
2023-04-26T19:41:57.356Z,3.80
2023-04-26T19:43:29.601Z,4.45
2023-04-26T19:45:01.497Z,4.57
2023-04-26T19:46:34.556Z,3.35
2023-04-26T19:48:09.065Z,10.45
2023-04-26T19:49:40.933Z,13.23
2023-04-26T19:51:17.681Z,9.88
2023-04-26T19:52:49.655Z,8.27
2023-04-26T19:54:22.447Z,6.50
2023-04-26T19:55:55.379Z,5.28
2023-04-26T19:57:28.580Z,4.38
2023-04-26T19:59:02.092Z,4.80
2023-04-26T20:00:39.273Z,4.53
2023-04-26T20:02:12.829Z,3.72
2023-04-26T20:03:47.012Z,3.97
2023-04-26T20:05:20.793Z,4.18
2023-04-26T20:06:53.007Z,4.07
2023-04-26T20:08:25.142Z,4.60
2023-04-26T20:09:57.288Z,3.75
2023-04-26T20:11:29.354Z,4.50
2023-04-26T20:13:03.073Z,3.33
2023-04-26T20:14:35.697Z,4.25
2023-04-26T20:16:08.363Z,3.78
2023-04-26T20:17:41.820Z,3.22
2023-04-26T20:19:19.337Z,3.67
2023-04-26T20:20:52.306Z,3.75
2023-04-26T20:22:24.352Z,4.72
2023-04-26T20:23:56.436Z,4.07
2023-04-26T20:25:28.357Z,4.00
2023-04-26T20:27:01.936Z,3.67
2023-04-26T20:28:34.044Z,3.90
2023-04-26T20:30:08.049Z,3.75
2023-04-26T20:31:41.360Z,3.88
2023-04-26T20:33:13.582Z,3.42
2023-04-26T20:34:45.483Z,3.38
2023-04-26T20:36:18.280Z,3.95
2023-04-26T20:37:50.922Z,3.67
2023-04-26T20:39:23.733Z,3.25
2023-04-26T20:40:56.292Z,4.28
2023-04-26T20:42:28.722Z,3.70
2023-04-26T20:44:01.795Z,3.97
2023-04-26T20:45:33.926Z,4.82
2023-04-26T20:47:06.320Z,4.18
2023-04-26T20:48:38.318Z,3.47